createdAt,value
2023-01-08T00:05:05.928Z,35.6
2023-01-08T00:10:13.289Z,35.5
2023-01-08T00:15:36.233Z,35.5
2023-01-08T00:20:59.285Z,35.4
2023-01-08T00:26:22.021Z,35.4
2023-01-08T00:31:29.370Z,35.4
2023-01-08T00:36:52.931Z,35.4
2023-01-08T00:42:15.776Z,35.3
2023-01-08T00:47:38.854Z,35.3
2023-01-08T00:58:10.236Z,35.3
2023-01-08T01:03:17.742Z,35.3
2023-01-08T01:08:41.952Z,35.2
2023-01-08T01:14:04.837Z,35.2
2023-01-08T01:19:12.529Z,35.1
2023-01-08T01:24:36.367Z,35.1
2023-01-08T01:29:59.474Z,35.1
2023-01-08T01:40:30.914Z,35
2023-01-08T01:51:00.748Z,34.9
2023-01-08T01:56:24.704Z,34.9
2023-01-08T02:01:47.905Z,34.9
2023-01-08T02:07:11.928Z,34.9
2023-01-08T02:12:36.103Z,34.8
2023-01-08T02:17:59.345Z,34.8
2023-01-08T02:23:06.452Z,34.8
2023-01-08T02:28:29.935Z,34.8
2023-01-08T02:33:52.522Z,34.8
2023-01-08T02:38:59.940Z,34.7
2023-01-08T02:49:30.945Z,34.6
2023-01-08T02:54:53.990Z,34.6
2023-01-08T03:00:17.483Z,34.6
2023-01-08T03:05:42.289Z,34.6
2023-01-08T03:11:04.818Z,34.5
2023-01-08T03:16:28.902Z,34.5
2023-01-08T03:21:53.667Z,34.4
2023-01-08T03:27:01.360Z,34.4
2023-01-08T03:32:25.735Z,34.4
2023-01-08T03:37:47.437Z,34.4
2023-01-08T03:43:09.715Z,34.3
2023-01-08T03:48:18.363Z,34.3
2023-01-08T03:53:40.892Z,34.3
2023-01-08T03:59:03.347Z,34.3
2023-01-08T04:04:28.751Z,34.3
2023-01-08T04:09:51.144Z,34.2
2023-01-08T04:15:13.598Z,34.1
2023-01-08T04:20:38.370Z,34.1
2023-01-08T04:26:00.118Z,34.1
2023-01-08T04:31:06.856Z,34.1
2023-01-08T04:36:31.085Z,34.1
2023-01-08T04:47:00.128Z,34
2023-01-08T04:52:23.957Z,34
2023-01-08T04:57:46.439Z,33.9
2023-01-08T05:03:10.917Z,33.9
2023-01-08T05:08:36.636Z,33.9
2023-01-08T05:13:44.338Z,33.9
2023-01-08T05:19:07.491Z,33.8
2023-01-08T05:24:33.759Z,33.8
2023-01-08T05:29:57.002Z,33.8
2023-01-08T05:35:19.933Z,33.8
2023-01-08T05:40:28.426Z,33.7
2023-01-08T05:45:35.423Z,33.7
2023-01-08T05:50:58.530Z,33.6
2023-01-08T05:56:25.289Z,33.6
2023-01-08T06:01:47.685Z,33.6
2023-01-08T06:07:10.596Z,33.6
2023-01-08T06:12:34.089Z,33.6
2023-01-08T06:17:56.974Z,33.5
2023-01-08T06:22:33.764Z,33.4
2023-01-08T06:32:32.974Z,33.4
2023-01-08T06:37:56.012Z,33.3
2023-01-08T06:43:04.323Z,33.3
2023-01-08T06:48:29.494Z,33.3
2023-01-08T06:53:37.417Z,33.2
2023-01-08T06:59:21.438Z,33.2
2023-01-08T07:04:45.559Z,33.1
2023-01-08T07:10:08.916Z,33.1
2023-01-08T07:15:32.361Z,33.1
2023-01-08T07:20:55.720Z,33
2023-01-08T07:26:18.989Z,32.9
2023-01-08T07:31:35.620Z,32.9
2023-01-08T07:37:01.787Z,32.9
2023-01-08T07:42:25.359Z,34.3
2023-01-08T07:47:48.689Z,37.1
2023-01-08T07:52:55.754Z,36.2
2023-01-08T07:58:03.183Z,35.8
2023-01-08T08:03:29.794Z,43
2023-01-08T08:08:52.440Z,44.1
2023-01-08T08:14:15.554Z,45.1
2023-01-08T08:19:38.965Z,45.7
2023-01-08T08:25:01.809Z,42
2023-01-08T08:30:24.873Z,41.3
2023-01-08T08:35:48.720Z,41.9
2023-01-08T08:41:11.356Z,43
2023-01-08T08:46:36.838Z,44.2
2023-01-08T08:52:00.378Z,44.4
2023-01-08T08:57:24.797Z,44.2
2023-01-08T09:02:49.478Z,43.5
2023-01-08T09:08:13.710Z,44.3
2023-01-08T09:13:36.286Z,45.8
2023-01-08T09:18:59.029Z,46.9
2023-01-08T09:24:22.674Z,48.3
2023-01-08T09:29:45.331Z,49.4
2023-01-08T09:35:08.604Z,50.4
2023-01-08T09:40:36.179Z,51.4
2023-01-08T09:45:45.523Z,52.3
2023-01-08T09:50:53.123Z,53.1
2023-01-08T09:56:27.641Z,53.8
2023-01-08T10:01:50.618Z,54.4
2023-01-08T10:07:14.319Z,55.1
2023-01-08T10:12:38.071Z,55.4
2023-01-08T10:18:01.559Z,56.1
2023-01-08T10:23:24.096Z,56.6
2023-01-08T10:28:34.400Z,57.1
2023-01-08T10:33:58.226Z,57.6
2023-01-08T10:39:23.114Z,58.2
2023-01-08T10:44:46.071Z,58.6
2023-01-08T10:50:11.521Z,59.1
2023-01-08T11:00:27.205Z,59.8
2023-01-08T11:05:34.650Z,60.1
2023-01-08T11:10:41.829Z,60.5
2023-01-08T11:16:04.982Z,60.6
2023-01-08T11:21:28.322Z,60.8
2023-01-08T11:26:52.795Z,60.9
2023-01-08T11:32:16.113Z,61.1
2023-01-08T11:37:38.911Z,61.2
2023-01-08T11:43:04.535Z,61.4
2023-01-08T11:48:14.423Z,61.1
2023-01-08T11:58:28.081Z,61.2
2023-01-08T12:03:51.408Z,61.3
2023-01-08T12:09:13.562Z,61.4
2023-01-08T12:14:35.575Z,61.4
2023-01-08T12:19:43.382Z,61.4
2023-01-08T12:25:05.477Z,61.3
2023-01-08T12:30:41.721Z,61.1
2023-01-08T12:36:15.874Z,60.8
2023-01-08T12:41:38.828Z,60.7
2023-01-08T12:47:12.750Z,60.5
2023-01-08T12:52:35.278Z,60.3
2023-01-08T12:57:57.854Z,60.1
2023-01-08T13:08:29.594Z,59.6
2023-01-08T13:13:52.481Z,59.3
2023-01-08T13:19:00.481Z,58.7
2023-01-08T13:24:23.377Z,58.2
2023-01-08T13:34:36.935Z,57.3
2023-01-08T13:40:13.453Z,56.8
2023-01-08T13:45:24.364Z,56.2
2023-01-08T13:50:16.196Z,55.6
2023-01-08T14:00:30.657Z,54.3
2023-01-08T14:05:54.395Z,53.5
2023-01-08T14:11:02.002Z,52.8
2023-01-08T14:16:25.015Z,52
2023-01-08T14:21:47.885Z,51.3
2023-01-08T14:27:10.722Z,50.5
2023-01-08T14:32:33.700Z,49.3
2023-01-08T14:37:56.002Z,46
2023-01-08T14:48:36.182Z,42.9
2023-01-08T14:53:58.839Z,42.1
2023-01-08T14:59:21.871Z,41.3
2023-01-08T15:04:47.537Z,40.8
2023-01-08T15:10:09.888Z,40.4
2023-01-08T15:15:32.806Z,40
2023-01-08T15:20:55.599Z,39.8
2023-01-08T15:26:02.723Z,39.5
2023-01-08T15:31:25.896Z,39.3
2023-01-08T15:40:56.062Z,39.1
2023-01-08T15:51:28.100Z,38.8
2023-01-08T15:56:51.141Z,38.8
2023-01-08T16:07:06.951Z,38.5
2023-01-08T16:11:58.255Z,38.3
2023-01-08T16:17:06.765Z,38.2
2023-01-08T16:22:29.682Z,38.1
2023-01-08T16:27:51.782Z,37.9
2023-01-08T16:33:17.218Z,37.8
2023-01-08T16:38:40.201Z,37.6
2023-01-08T16:43:47.535Z,37.4
2023-01-08T16:49:10.141Z,37.4
2023-01-08T16:54:02.245Z,37.3
2023-01-08T16:59:38.512Z,37.2
2023-01-08T17:04:49.134Z,37.1
2023-01-08T17:15:03.707Z,36.9
2023-01-08T17:20:26.729Z,36.8
2023-01-08T17:25:34.182Z,36.7
2023-01-08T17:30:41.423Z,36.6
2023-01-08T17:36:04.834Z,36.5
2023-01-08T17:41:31.974Z,36.4
2023-01-08T17:46:55.401Z,36.4
2023-01-08T17:52:17.665Z,36.3
2023-01-08T17:57:25.923Z,36.2
2023-01-08T18:02:50.830Z,36.1
2023-01-08T18:08:14.382Z,36.1
2023-01-08T18:13:37.551Z,36
2023-01-08T18:18:28.898Z,35.9
2023-01-08T18:23:36.645Z,35.9
2023-01-08T18:28:59.943Z,35.8
2023-01-08T18:34:21.950Z,35.8
2023-01-08T18:39:29.485Z,35.7
2023-01-08T18:44:52.764Z,35.6
2023-01-08T18:50:16.165Z,35.6
2023-01-08T18:55:24.713Z,35.6
2023-01-08T19:00:32.371Z,35.5
2023-01-08T19:05:40.655Z,35.4
2023-01-08T19:11:03.807Z,35.4
2023-01-08T19:16:14.171Z,35.4
2023-01-08T19:21:37.904Z,35.3
2023-01-08T19:26:46.207Z,35.3
2023-01-08T19:31:57.991Z,35.2
2023-01-08T19:37:21.798Z,35.2
2023-01-08T19:42:29.029Z,35.1
2023-01-08T19:47:54.831Z,35.1
2023-01-08T19:53:19.648Z,35
2023-01-08T19:58:45.590Z,35
2023-01-08T20:04:00.104Z,34.9
2023-01-08T20:09:16.130Z,34.9
2023-01-08T20:14:45.959Z,34.9
2023-01-08T20:20:02.912Z,34.8
2023-01-08T20:30:40.026Z,34.8
2023-01-08T20:35:34.148Z,34.7
2023-01-08T20:40:40.905Z,34.7
2023-01-08T20:46:18.607Z,34.6
2023-01-08T20:52:02.738Z,34.6
2023-01-08T20:57:24.536Z,34.6
2023-01-08T21:12:30.459Z,34.4
2023-01-08T21:27:05.562Z,34.4
2023-01-08T21:31:56.947Z,34.4
2023-01-08T21:37:04.049Z,34.3
2023-01-08T21:42:11.072Z,34.3
2023-01-08T21:47:18.261Z,34.3
2023-01-08T21:52:26.027Z,34.3
2023-01-08T21:57:35.010Z,34.2
2023-01-08T22:02:41.990Z,34.1
2023-01-08T22:07:49.093Z,34.1
2023-01-08T22:13:12.271Z,34.1
2023-01-08T22:18:35.034Z,34.1
2023-01-08T22:23:42.188Z,34
2023-01-08T22:28:49.774Z,34
2023-01-08T22:34:12.644Z,33.9
2023-01-08T22:39:21.938Z,33.9
2023-01-08T22:44:47.341Z,33.9
2023-01-08T22:49:54.606Z,33.9
2023-01-08T22:55:17.211Z,33.9
2023-01-08T23:00:40.201Z,33.8
2023-01-08T23:06:02.633Z,33.8
2023-01-08T23:11:10.198Z,33.8
2023-01-08T23:21:00.560Z,33.7
2023-01-08T23:26:23.381Z,33.6
2023-01-08T23:31:46.785Z,33.6
2023-01-08T23:37:27.858Z,33.6
2023-01-08T23:47:57.583Z,33.6
2023-01-08T23:53:03.730Z,33.5
2023-01-08T23:58:26.112Z,33.5
